sensor_id;sensor_type;location;lat;lon;timestamp;P1;durP1;ratioP1;P2;durP2;ratioP2
39738;SDS011;25422;48.286;8.484;2023-12-20T00:01:19;1.00;;;1.00;;
39738;SDS011;25422;48.286;8.484;2023-12-20T00:03:44;1.20;;;1.10;;
39738;SDS011;25422;48.286;8.484;2023-12-20T00:06:10;1.02;;;1.02;;
39738;SDS011;25422;48.286;8.484;2023-12-20T00:08:35;1.38;;;1.27;;
39738;SDS011;25422;48.286;8.484;2023-12-20T00:11:01;1.27;;;1.20;;
39738;SDS011;25422;48.286;8.484;2023-12-20T00:13:27;2.17;;;1.60;;
39738;SDS011;25422;48.286;8.484;2023-12-20T00:15:52;1.10;;;1.10;;
39738;SDS011;25422;48.286;8.484;2023-12-20T00:18:18;2.33;;;1.77;;
39738;SDS011;25422;48.286;8.484;2023-12-20T00:20:44;2.47;;;1.92;;
39738;SDS011;25422;48.286;8.484;2023-12-20T00:23:09;2.00;;;1.77;;
39738;SDS011;25422;48.286;8.484;2023-12-20T00:25:34;1.77;;;1.65;;
39738;SDS011;25422;48.286;8.484;2023-12-20T00:28:00;2.05;;;1.95;;
39738;SDS011;25422;48.286;8.484;2023-12-20T00:30:27;2.08;;;1.80;;
39738;SDS011;25422;48.286;8.484;2023-12-20T00:32:53;1.80;;;1.70;;
39738;SDS011;25422;48.286;8.484;2023-12-20T00:35:18;1.80;;;1.55;;
39738;SDS011;25422;48.286;8.484;2023-12-20T00:37:44;2.10;;;1.67;;
39738;SDS011;25422;48.286;8.484;2023-12-20T00:40:10;1.50;;;1.40;;
39738;SDS011;25422;48.286;8.484;2023-12-20T00:42:36;2.53;;;1.63;;
39738;SDS011;25422;48.286;8.484;2023-12-20T00:45:01;1.67;;;1.58;;
39738;SDS011;25422;48.286;8.484;2023-12-20T00:47:27;1.42;;;1.33;;
39738;SDS011;25422;48.286;8.484;2023-12-20T00:49:53;1.45;;;1.35;;
39738;SDS011;25422;48.286;8.484;2023-12-20T00:52:18;1.80;;;1.65;;
39738;SDS011;25422;48.286;8.484;2023-12-20T00:54:44;1.67;;;1.58;;
39738;SDS011;25422;48.286;8.484;2023-12-20T00:57:10;1.80;;;1.70;;
39738;SDS011;25422;48.286;8.484;2023-12-20T00:59:35;2.17;;;1.70;;
39738;SDS011;25422;48.286;8.484;2023-12-20T01:02:01;1.98;;;1.40;;
39738;SDS011;25422;48.286;8.484;2023-12-20T01:04:27;1.27;;;1.20;;
39738;SDS011;25422;48.286;8.484;2023-12-20T01:06:52;1.30;;;1.17;;
39738;SDS011;25422;48.286;8.484;2023-12-20T01:09:18;1.70;;;1.40;;
39738;SDS011;25422;48.286;8.484;2023-12-20T01:11:44;1.20;;;1.10;;
39738;SDS011;25422;48.286;8.484;2023-12-20T01:14:09;1.40;;;1.30;;
39738;SDS011;25422;48.286;8.484;2023-12-20T01:16:34;1.08;;;1.08;;
39738;SDS011;25422;48.286;8.484;2023-12-20T01:19:00;1.70;;;1.50;;
39738;SDS011;25422;48.286;8.484;2023-12-20T01:21:25;1.40;;;1.20;;
39738;SDS011;25422;48.286;8.484;2023-12-20T01:23:51;1.40;;;1.20;;
39738;SDS011;25422;48.286;8.484;2023-12-20T01:26:16;1.30;;;1.10;;
39738;SDS011;25422;48.286;8.484;2023-12-20T01:28:42;1.40;;;1.30;;
39738;SDS011;25422;48.286;8.484;2023-12-20T01:31:08;1.40;;;1.30;;
39738;SDS011;25422;48.286;8.484;2023-12-20T01:33:33;1.23;;;1.13;;
39738;SDS011;25422;48.286;8.484;2023-12-20T01:35:59;1.70;;;1.20;;
39738;SDS011;25422;48.286;8.484;2023-12-20T01:38:25;1.50;;;1.10;;
39738;SDS011;25422;48.286;8.484;2023-12-20T01:40:50;2.20;;;1.10;;
39738;SDS011;25422;48.286;8.484;2023-12-20T01:43:16;1.20;;;1.10;;
39738;SDS011;25422;48.286;8.484;2023-12-20T01:45:41;0.80;;;0.80;;
39738;SDS011;25422;48.286;8.484;2023-12-20T01:48:07;1.27;;;0.88;;
39738;SDS011;25422;48.286;8.484;2023-12-20T01:50:33;1.38;;;1.27;;
39738;SDS011;25422;48.286;8.484;2023-12-20T01:53:01;0.90;;;0.90;;
39738;SDS011;25422;48.286;8.484;2023-12-20T01:55:28;1.45;;;0.95;;
39738;SDS011;25422;48.286;8.484;2023-12-20T01:57:56;1.00;;;0.90;;
39738;SDS011;25422;48.286;8.484;2023-12-20T02:00:23;0.80;;;0.80;;
39738;SDS011;25422;48.286;8.484;2023-12-20T02:02:52;0.85;;;0.85;;
39738;SDS011;25422;48.286;8.484;2023-12-20T02:05:19;0.80;;;0.80;;
39738;SDS011;25422;48.286;8.484;2023-12-20T02:07:45;0.90;;;0.90;;
39738;SDS011;25422;48.286;8.484;2023-12-20T02:10:10;0.80;;;0.80;;
39738;SDS011;25422;48.286;8.484;2023-12-20T02:12:36;0.98;;;0.93;;
39738;SDS011;25422;48.286;8.484;2023-12-20T02:15:01;1.00;;;1.00;;
39738;SDS011;25422;48.286;8.484;2023-12-20T02:17:27;0.98;;;0.98;;
39738;SDS011;25422;48.286;8.484;2023-12-20T02:19:53;0.80;;;0.80;;
39738;SDS011;25422;48.286;8.484;2023-12-20T02:22:18;0.98;;;0.93;;
39738;SDS011;25422;48.286;8.484;2023-12-20T02:24:43;1.50;;;0.70;;
39738;SDS011;25422;48.286;8.484;2023-12-20T02:27:09;0.90;;;0.90;;
39738;SDS011;25422;48.286;8.484;2023-12-20T02:29:35;1.33;;;1.00;;
39738;SDS011;25422;48.286;8.484;2023-12-20T02:32:01;0.98;;;0.88;;
39738;SDS011;25422;48.286;8.484;2023-12-20T02:34:27;0.90;;;0.90;;
39738;SDS011;25422;48.286;8.484;2023-12-20T02:36:53;0.93;;;0.93;;
39738;SDS011;25422;48.286;8.484;2023-12-20T02:39:19;0.80;;;0.80;;
39738;SDS011;25422;48.286;8.484;2023-12-20T02:41:44;1.27;;;1.17;;
39738;SDS011;25422;48.286;8.484;2023-12-20T02:44:09;1.17;;;0.90;;
39738;SDS011;25422;48.286;8.484;2023-12-20T02:46:35;0.70;;;0.70;;
39738;SDS011;25422;48.286;8.484;2023-12-20T02:49:00;1.15;;;1.05;;
39738;SDS011;25422;48.286;8.484;2023-12-20T02:51:26;0.80;;;0.80;;
39738;SDS011;25422;48.286;8.484;2023-12-20T02:53:51;0.80;;;0.80;;
39738;SDS011;25422;48.286;8.484;2023-12-20T02:56:16;1.77;;;0.90;;
39738;SDS011;25422;48.286;8.484;2023-12-20T02:58:42;0.80;;;0.80;;
39738;SDS011;25422;48.286;8.484;2023-12-20T03:01:07;0.82;;;0.82;;
39738;SDS011;25422;48.286;8.484;2023-12-20T03:03:33;1.05;;;0.70;;
39738;SDS011;25422;48.286;8.484;2023-12-20T03:05:58;0.77;;;0.77;;
39738;SDS011;25422;48.286;8.484;2023-12-20T03:08:23;1.40;;;0.70;;
39738;SDS011;25422;48.286;8.484;2023-12-20T03:10:49;0.90;;;0.90;;
39738;SDS011;25422;48.286;8.484;2023-12-20T03:13:15;0.77;;;0.70;;
39738;SDS011;25422;48.286;8.484;2023-12-20T03:15:40;0.80;;;0.80;;
39738;SDS011;25422;48.286;8.484;2023-12-20T03:18:06;0.70;;;0.70;;
39738;SDS011;25422;48.286;8.484;2023-12-20T03:20:31;0.55;;;0.55;;
39738;SDS011;25422;48.286;8.484;2023-12-20T03:22:59;0.73;;;0.73;;
39738;SDS011;25422;48.286;8.484;2023-12-20T03:25:25;0.70;;;0.70;;
39738;SDS011;25422;48.286;8.484;2023-12-20T03:27:50;2.10;;;1.58;;
39738;SDS011;25422;48.286;8.484;2023-12-20T03:30:16;0.77;;;0.77;;
39738;SDS011;25422;48.286;8.484;2023-12-20T03:32:41;0.70;;;0.70;;
39738;SDS011;25422;48.286;8.484;2023-12-20T03:35:07;0.70;;;0.70;;
39738;SDS011;25422;48.286;8.484;2023-12-20T03:37:32;0.60;;;0.60;;
39738;SDS011;25422;48.286;8.484;2023-12-20T03:39:57;1.90;;;0.80;;
39738;SDS011;25422;48.286;8.484;2023-12-20T03:42:23;0.95;;;0.95;;
39738;SDS011;25422;48.286;8.484;2023-12-20T03:44:48;0.93;;;0.70;;
39738;SDS011;25422;48.286;8.484;2023-12-20T03:47:14;0.70;;;0.70;;
39738;SDS011;25422;48.286;8.484;2023-12-20T03:49:39;0.68;;;0.68;;
39738;SDS011;25422;48.286;8.484;2023-12-20T03:52:04;1.60;;;0.60;;
39738;SDS011;25422;48.286;8.484;2023-12-20T03:54:30;0.70;;;0.70;;
39738;SDS011;25422;48.286;8.484;2023-12-20T03:56:55;0.98;;;0.98;;
39738;SDS011;25422;48.286;8.484;2023-12-20T03:59:21;0.50;;;0.50;;
39738;SDS011;25422;48.286;8.484;2023-12-20T04:01:47;0.70;;;0.70;;
39738;SDS011;25422;48.286;8.484;2023-12-20T04:04:12;0.60;;;0.60;;
39738;SDS011;25422;48.286;8.484;2023-12-20T04:06:38;0.52;;;0.52;;
39738;SDS011;25422;48.286;8.484;2023-12-20T04:09:03;0.60;;;0.60;;
39738;SDS011;25422;48.286;8.484;2023-12-20T04:11:29;0.60;;;0.60;;
39738;SDS011;25422;48.286;8.484;2023-12-20T04:13:56;0.80;;;0.80;;
39738;SDS011;25422;48.286;8.484;2023-12-20T04:16:22;0.80;;;0.80;;
39738;SDS011;25422;48.286;8.484;2023-12-20T04:18:47;0.80;;;0.80;;
39738;SDS011;25422;48.286;8.484;2023-12-20T04:21:13;0.75;;;0.75;;
39738;SDS011;25422;48.286;8.484;2023-12-20T04:23:38;0.52;;;0.52;;
39738;SDS011;25422;48.286;8.484;2023-12-20T04:26:03;0.52;;;0.52;;
39738;SDS011;25422;48.286;8.484;2023-12-20T04:28:29;0.60;;;0.60;;
39738;SDS011;25422;48.286;8.484;2023-12-20T04:30:57;0.60;;;0.60;;
39738;SDS011;25422;48.286;8.484;2023-12-20T04:33:22;0.82;;;0.80;;
39738;SDS011;25422;48.286;8.484;2023-12-20T04:35:48;0.60;;;0.60;;
39738;SDS011;25422;48.286;8.484;2023-12-20T04:38:13;0.70;;;0.70;;
39738;SDS011;25422;48.286;8.484;2023-12-20T04:40:39;0.60;;;0.60;;
39738;SDS011;25422;48.286;8.484;2023-12-20T04:43:06;0.70;;;0.70;;
39738;SDS011;25422;48.286;8.484;2023-12-20T04:45:32;0.57;;;0.57;;
39738;SDS011;25422;48.286;8.484;2023-12-20T04:47:57;0.60;;;0.60;;
39738;SDS011;25422;48.286;8.484;2023-12-20T04:50:23;0.57;;;0.57;;
39738;SDS011;25422;48.286;8.484;2023-12-20T04:52:48;0.57;;;0.57;;
39738;SDS011;25422;48.286;8.484;2023-12-20T04:55:14;0.50;;;0.50;;
39738;SDS011;25422;48.286;8.484;2023-12-20T04:57:39;0.63;;;0.63;;
39738;SDS011;25422;48.286;8.484;2023-12-20T05:00:05;0.60;;;0.60;;
39738;SDS011;25422;48.286;8.484;2023-12-20T05:02:31;0.63;;;0.63;;
39738;SDS011;25422;48.286;8.484;2023-12-20T05:04:56;0.40;;;0.40;;
39738;SDS011;25422;48.286;8.484;2023-12-20T05:07:22;0.68;;;0.68;;
39738;SDS011;25422;48.286;8.484;2023-12-20T05:09:47;0.60;;;0.60;;
39738;SDS011;25422;48.286;8.484;2023-12-20T05:12:13;0.60;;;0.60;;
39738;SDS011;25422;48.286;8.484;2023-12-20T05:14:39;0.70;;;0.70;;
39738;SDS011;25422;48.286;8.484;2023-12-20T05:17:04;0.65;;;0.65;;
39738;SDS011;25422;48.286;8.484;2023-12-20T05:19:29;0.60;;;0.60;;
39738;SDS011;25422;48.286;8.484;2023-12-20T05:21:55;0.55;;;0.55;;
39738;SDS011;25422;48.286;8.484;2023-12-20T05:24:21;1.67;;;0.75;;
39738;SDS011;25422;48.286;8.484;2023-12-20T05:26:46;0.75;;;0.75;;
39738;SDS011;25422;48.286;8.484;2023-12-20T05:29:12;0.63;;;0.63;;
39738;SDS011;25422;48.286;8.484;2023-12-20T05:31:37;1.23;;;0.65;;
39738;SDS011;25422;48.286;8.484;2023-12-20T05:34:02;0.63;;;0.63;;
39738;SDS011;25422;48.286;8.484;2023-12-20T05:36:28;0.50;;;0.50;;
39738;SDS011;25422;48.286;8.484;2023-12-20T05:38:53;0.60;;;0.60;;
39738;SDS011;25422;48.286;8.484;2023-12-20T05:41:19;0.60;;;0.60;;
39738;SDS011;25422;48.286;8.484;2023-12-20T05:43:44;0.60;;;0.60;;
39738;SDS011;25422;48.286;8.484;2023-12-20T05:46:10;0.50;;;0.50;;
39738;SDS011;25422;48.286;8.484;2023-12-20T05:48:37;0.63;;;0.63;;
39738;SDS011;25422;48.286;8.484;2023-12-20T05:51:02;0.70;;;0.70;;
39738;SDS011;25422;48.286;8.484;2023-12-20T05:53:28;0.70;;;0.70;;
39738;SDS011;25422;48.286;8.484;2023-12-20T05:55:53;0.60;;;0.60;;
39738;SDS011;25422;48.286;8.484;2023-12-20T05:58:19;0.60;;;0.60;;
39738;SDS011;25422;48.286;8.484;2023-12-20T06:00:44;0.70;;;0.70;;
39738;SDS011;25422;48.286;8.484;2023-12-20T06:03:10;0.65;;;0.65;;
39738;SDS011;25422;48.286;8.484;2023-12-20T06:05:35;0.90;;;0.90;;
39738;SDS011;25422;48.286;8.484;2023-12-20T06:08:00;4.13;;;2.78;;
39738;SDS011;25422;48.286;8.484;2023-12-20T06:10:28;1.00;;;1.00;;
39738;SDS011;25422;48.286;8.484;2023-12-20T06:12:54;4.05;;;3.40;;
39738;SDS011;25422;48.286;8.484;2023-12-20T06:15:20;1.70;;;1.60;;
39738;SDS011;25422;48.286;8.484;2023-12-20T06:17:45;0.70;;;0.70;;
39738;SDS011;25422;48.286;8.484;2023-12-20T06:20:12;0.90;;;0.90;;
39738;SDS011;25422;48.286;8.484;2023-12-20T06:22:38;0.98;;;0.98;;
39738;SDS011;25422;48.286;8.484;2023-12-20T06:25:04;0.75;;;0.75;;
39738;SDS011;25422;48.286;8.484;2023-12-20T06:27:29;1.08;;;1.00;;
39738;SDS011;25422;48.286;8.484;2023-12-20T06:29:57;1.25;;;1.15;;
39738;SDS011;25422;48.286;8.484;2023-12-20T06:32:24;1.40;;;0.80;;
39738;SDS011;25422;48.286;8.484;2023-12-20T06:34:49;0.90;;;0.90;;
39738;SDS011;25422;48.286;8.484;2023-12-20T06:37:15;1.10;;;1.10;;
39738;SDS011;25422;48.286;8.484;2023-12-20T06:39:40;1.30;;;1.20;;
39738;SDS011;25422;48.286;8.484;2023-12-20T06:42:06;1.48;;;1.38;;
39738;SDS011;25422;48.286;8.484;2023-12-20T06:44:31;1.50;;;1.40;;
39738;SDS011;25422;48.286;8.484;2023-12-20T06:46:57;1.90;;;1.17;;
39738;SDS011;25422;48.286;8.484;2023-12-20T06:49:23;0.80;;;0.80;;
39738;SDS011;25422;48.286;8.484;2023-12-20T06:51:48;0.93;;;0.93;;
39738;SDS011;25422;48.286;8.484;2023-12-20T06:54:14;1.00;;;1.00;;
39738;SDS011;25422;48.286;8.484;2023-12-20T06:56:39;0.90;;;0.90;;
39738;SDS011;25422;48.286;8.484;2023-12-20T06:59:06;0.90;;;0.90;;
39738;SDS011;25422;48.286;8.484;2023-12-20T07:01:31;2.20;;;2.00;;
39738;SDS011;25422;48.286;8.484;2023-12-20T07:03:57;3.60;;;2.97;;
39738;SDS011;25422;48.286;8.484;2023-12-20T07:06:22;5.78;;;5.20;;
39738;SDS011;25422;48.286;8.484;2023-12-20T07:08:48;16.80;;;13.07;;
39738;SDS011;25422;48.286;8.484;2023-12-20T07:11:13;20.58;;;16.77;;
39738;SDS011;25422;48.286;8.484;2023-12-20T07:13:39;5.88;;;4.97;;
39738;SDS011;25422;48.286;8.484;2023-12-20T07:16:04;58.25;;;42.13;;
39738;SDS011;25422;48.286;8.484;2023-12-20T07:18:30;8.57;;;7.80;;
39738;SDS011;25422;48.286;8.484;2023-12-20T07:20:55;9.00;;;8.20;;
39738;SDS011;25422;48.286;8.484;2023-12-20T07:23:21;4.78;;;4.25;;
39738;SDS011;25422;48.286;8.484;2023-12-20T07:25:46;5.82;;;5.40;;
39738;SDS011;25422;48.286;8.484;2023-12-20T07:28:12;2.90;;;2.70;;
39738;SDS011;25422;48.286;8.484;2023-12-20T07:30:37;3.40;;;3.10;;
39738;SDS011;25422;48.286;8.484;2023-12-20T07:33:04;1.40;;;1.30;;
39738;SDS011;25422;48.286;8.484;2023-12-20T07:35:29;1.08;;;1.08;;
39738;SDS011;25422;48.286;8.484;2023-12-20T07:37:55;1.70;;;1.60;;
39738;SDS011;25422;48.286;8.484;2023-12-20T07:40:20;11.32;;;10.27;;
39738;SDS011;25422;48.286;8.484;2023-12-20T07:42:46;1.33;;;1.23;;
39738;SDS011;25422;48.286;8.484;2023-12-20T07:45:11;1.38;;;1.30;;
39738;SDS011;25422;48.286;8.484;2023-12-20T07:47:37;1.40;;;1.30;;
39738;SDS011;25422;48.286;8.484;2023-12-20T07:50:02;2.08;;;1.98;;
39738;SDS011;25422;48.286;8.484;2023-12-20T07:52:31;1.90;;;1.80;;
39738;SDS011;25422;48.286;8.484;2023-12-20T07:54:57;1.98;;;1.88;;
39738;SDS011;25422;48.286;8.484;2023-12-20T07:57:23;1.70;;;1.60;;
39738;SDS011;25422;48.286;8.484;2023-12-20T07:59:48;1.80;;;1.70;;
39738;SDS011;25422;48.286;8.484;2023-12-20T08:02:14;1.98;;;1.80;;
39738;SDS011;25422;48.286;8.484;2023-12-20T08:04:40;1.60;;;1.50;;
39738;SDS011;25422;48.286;8.484;2023-12-20T08:07:06;1.50;;;1.40;;
39738;SDS011;25422;48.286;8.484;2023-12-20T08:09:32;2.65;;;2.35;;
39738;SDS011;25422;48.286;8.484;2023-12-20T08:11:58;1.50;;;1.40;;
39738;SDS011;25422;48.286;8.484;2023-12-20T08:14:25;2.47;;;1.70;;
39738;SDS011;25422;48.286;8.484;2023-12-20T08:16:50;1.73;;;1.63;;
39738;SDS011;25422;48.286;8.484;2023-12-20T08:19:16;1.70;;;1.52;;
39738;SDS011;25422;48.286;8.484;2023-12-20T08:21:42;1.17;;;1.10;;
39738;SDS011;25422;48.286;8.484;2023-12-20T08:24:07;1.35;;;1.25;;
39738;SDS011;25422;48.286;8.484;2023-12-20T08:26:33;1.73;;;1.40;;
39738;SDS011;25422;48.286;8.484;2023-12-20T08:28:58;2.95;;;2.65;;
39738;SDS011;25422;48.286;8.484;2023-12-20T08:31:24;5.05;;;4.30;;
39738;SDS011;25422;48.286;8.484;2023-12-20T08:33:50;9.00;;;7.03;;
39738;SDS011;25422;48.286;8.484;2023-12-20T08:36:15;2.28;;;2.08;;
39738;SDS011;25422;48.286;8.484;2023-12-20T08:38:43;1.80;;;1.70;;
39738;SDS011;25422;48.286;8.484;2023-12-20T08:41:08;1.98;;;1.80;;
39738;SDS011;25422;48.286;8.484;2023-12-20T08:43:34;2.03;;;1.70;;
39738;SDS011;25422;48.286;8.484;2023-12-20T08:46:00;1.83;;;1.73;;
39738;SDS011;25422;48.286;8.484;2023-12-20T08:48:25;1.50;;;1.40;;
39738;SDS011;25422;48.286;8.484;2023-12-20T08:50:51;1.40;;;1.30;;
39738;SDS011;25422;48.286;8.484;2023-12-20T08:53:17;1.65;;;1.55;;
39738;SDS011;25422;48.286;8.484;2023-12-20T08:55:43;1.73;;;1.63;;
39738;SDS011;25422;48.286;8.484;2023-12-20T08:58:09;1.52;;;1.45;;
39738;SDS011;25422;48.286;8.484;2023-12-20T09:00:35;1.45;;;1.35;;
39738;SDS011;25422;48.286;8.484;2023-12-20T09:03:03;1.52;;;1.42;;
39738;SDS011;25422;48.286;8.484;2023-12-20T09:05:29;1.02;;;1.02;;
39738;SDS011;25422;48.286;8.484;2023-12-20T09:07:55;1.35;;;1.13;;
39738;SDS011;25422;48.286;8.484;2023-12-20T09:10:20;0.80;;;0.80;;
39738;SDS011;25422;48.286;8.484;2023-12-20T09:12:53;0.90;;;0.90;;
39738;SDS011;25422;48.286;8.484;2023-12-20T09:15:25;2.15;;;1.80;;
39738;SDS011;25422;48.286;8.484;2023-12-20T09:17:51;0.90;;;0.90;;
39738;SDS011;25422;48.286;8.484;2023-12-20T09:20:17;15.75;;;6.93;;
39738;SDS011;25422;48.286;8.484;2023-12-20T09:22:43;30.65;;;11.02;;
39738;SDS011;25422;48.286;8.484;2023-12-20T09:25:09;36.42;;;16.60;;
39738;SDS011;25422;48.286;8.484;2023-12-20T09:27:36;9.82;;;5.32;;
39738;SDS011;25422;48.286;8.484;2023-12-20T09:30:02;5.90;;;4.00;;
39738;SDS011;25422;48.286;8.484;2023-12-20T09:32:29;2.72;;;2.15;;
39738;SDS011;25422;48.286;8.484;2023-12-20T09:34:54;2.55;;;2.33;;
39738;SDS011;25422;48.286;8.484;2023-12-20T09:37:20;2.90;;;2.70;;
39738;SDS011;25422;48.286;8.484;2023-12-20T09:39:45;2.80;;;2.35;;
39738;SDS011;25422;48.286;8.484;2023-12-20T09:42:11;2.83;;;2.47;;
39738;SDS011;25422;48.286;8.484;2023-12-20T09:44:41;4.78;;;2.85;;
39738;SDS011;25422;48.286;8.484;2023-12-20T09:47:09;3.83;;;3.35;;
39738;SDS011;25422;48.286;8.484;2023-12-20T09:49:35;4.90;;;2.80;;
39738;SDS011;25422;48.286;8.484;2023-12-20T09:52:02;2.88;;;2.53;;
39738;SDS011;25422;48.286;8.484;2023-12-20T09:54:31;3.47;;;2.63;;
39738;SDS011;25422;48.286;8.484;2023-12-20T09:56:56;4.40;;;3.25;;
39738;SDS011;25422;48.286;8.484;2023-12-20T09:59:22;6.82;;;4.00;;
39738;SDS011;25422;48.286;8.484;2023-12-20T10:01:47;6.07;;;2.90;;
39738;SDS011;25422;48.286;8.484;2023-12-20T10:04:13;3.60;;;2.90;;
39738;SDS011;25422;48.286;8.484;2023-12-20T10:06:41;3.47;;;2.45;;
39738;SDS011;25422;48.286;8.484;2023-12-20T10:09:08;2.97;;;2.28;;
39738;SDS011;25422;48.286;8.484;2023-12-20T10:11:35;2.58;;;2.38;;
39738;SDS011;25422;48.286;8.484;2023-12-20T10:14:02;15.68;;;8.70;;
39738;SDS011;25422;48.286;8.484;2023-12-20T10:16:29;5.53;;;3.97;;
39738;SDS011;25422;48.286;8.484;2023-12-20T10:18:55;5.05;;;3.25;;
39738;SDS011;25422;48.286;8.484;2023-12-20T10:21:21;3.55;;;2.80;;
39738;SDS011;25422;48.286;8.484;2023-12-20T10:23:48;5.38;;;2.80;;
39738;SDS011;25422;48.286;8.484;2023-12-20T10:26:20;2.65;;;1.98;;
39738;SDS011;25422;48.286;8.484;2023-12-20T10:28:46;3.05;;;2.70;;
39738;SDS011;25422;48.286;8.484;2023-12-20T10:31:36;3.00;;;2.70;;
39738;SDS011;25422;48.286;8.484;2023-12-20T10:34:02;2.78;;;2.58;;
39738;SDS011;25422;48.286;8.484;2023-12-20T10:36:28;3.75;;;2.97;;
39738;SDS011;25422;48.286;8.484;2023-12-20T10:38:55;3.38;;;2.63;;
39738;SDS011;25422;48.286;8.484;2023-12-20T10:44:02;2.58;;;2.35;;
39738;SDS011;25422;48.286;8.484;2023-12-20T10:46:30;3.47;;;2.20;;
39738;SDS011;25422;48.286;8.484;2023-12-20T10:48:57;3.60;;;2.50;;
39738;SDS011;25422;48.286;8.484;2023-12-20T10:51:23;3.42;;;2.55;;
39738;SDS011;25422;48.286;8.484;2023-12-20T10:53:51;4.32;;;3.35;;
39738;SDS011;25422;48.286;8.484;2023-12-20T10:56:18;3.58;;;2.83;;
39738;SDS011;25422;48.286;8.484;2023-12-20T10:58:45;5.00;;;4.13;;
39738;SDS011;25422;48.286;8.484;2023-12-20T11:01:13;6.57;;;4.88;;
39738;SDS011;25422;48.286;8.484;2023-12-20T11:03:46;6.38;;;4.60;;
39738;SDS011;25422;48.286;8.484;2023-12-20T11:08:52;11.82;;;7.80;;
39738;SDS011;25422;48.286;8.484;2023-12-20T11:12:21;16.95;;;12.43;;
39738;SDS011;25422;48.286;8.484;2023-12-20T11:17:09;10.55;;;5.25;;
39738;SDS011;25422;48.286;8.484;2023-12-20T11:19:43;10.48;;;7.13;;
39738;SDS011;25422;48.286;8.484;2023-12-20T11:22:27;14.07;;;9.32;;
39738;SDS011;25422;48.286;8.484;2023-12-20T11:24:57;15.07;;;9.68;;
39738;SDS011;25422;48.286;8.484;2023-12-20T11:27:27;12.38;;;7.57;;
39738;SDS011;25422;48.286;8.484;2023-12-20T11:29:53;12.68;;;7.43;;
39738;SDS011;25422;48.286;8.484;2023-12-20T11:34:50;18.27;;;7.22;;
39738;SDS011;25422;48.286;8.484;2023-12-20T11:37:16;14.32;;;8.38;;
39738;SDS011;25422;48.286;8.484;2023-12-20T11:39:44;15.02;;;8.50;;
39738;SDS011;25422;48.286;8.484;2023-12-20T11:42:10;15.77;;;8.98;;
39738;SDS011;25422;48.286;8.484;2023-12-20T11:44:36;11.77;;;6.78;;
39738;SDS011;25422;48.286;8.484;2023-12-20T11:47:02;13.18;;;8.18;;
39738;SDS011;25422;48.286;8.484;2023-12-20T11:49:28;22.30;;;12.05;;
39738;SDS011;25422;48.286;8.484;2023-12-20T11:51:57;13.38;;;7.03;;
39738;SDS011;25422;48.286;8.484;2023-12-20T11:54:22;10.38;;;6.15;;
39738;SDS011;25422;48.286;8.484;2023-12-20T11:56:48;8.68;;;5.22;;
39738;SDS011;25422;48.286;8.484;2023-12-20T11:59:13;8.00;;;4.93;;
39738;SDS011;25422;48.286;8.484;2023-12-20T12:01:40;9.35;;;5.30;;
39738;SDS011;25422;48.286;8.484;2023-12-20T12:04:05;10.75;;;5.35;;
39738;SDS011;25422;48.286;8.484;2023-12-20T12:06:32;7.80;;;5.35;;
39738;SDS011;25422;48.286;8.484;2023-12-20T12:08:57;9.35;;;4.53;;
39738;SDS011;25422;48.286;8.484;2023-12-20T12:11:23;14.65;;;5.53;;
39738;SDS011;25422;48.286;8.484;2023-12-20T12:13:48;7.72;;;4.45;;
39738;SDS011;25422;48.286;8.484;2023-12-20T12:16:17;10.73;;;5.45;;
39738;SDS011;25422;48.286;8.484;2023-12-20T12:18:45;6.03;;;3.20;;
39738;SDS011;25422;48.286;8.484;2023-12-20T12:21:10;8.75;;;3.50;;
39738;SDS011;25422;48.286;8.484;2023-12-20T12:23:36;9.18;;;4.50;;
39738;SDS011;25422;48.286;8.484;2023-12-20T12:26:03;12.45;;;4.20;;
39738;SDS011;25422;48.286;8.484;2023-12-20T12:28:29;11.65;;;3.78;;
39738;SDS011;25422;48.286;8.484;2023-12-20T12:30:57;8.20;;;3.90;;
39738;SDS011;25422;48.286;8.484;2023-12-20T12:33:25;6.95;;;3.65;;
39738;SDS011;25422;48.286;8.484;2023-12-20T12:35:51;12.68;;;3.65;;
39738;SDS011;25422;48.286;8.484;2023-12-20T12:38:20;9.15;;;3.50;;
39738;SDS011;25422;48.286;8.484;2023-12-20T12:40:49;7.47;;;3.40;;
39738;SDS011;25422;48.286;8.484;2023-12-20T12:43:15;10.52;;;3.10;;
39738;SDS011;25422;48.286;8.484;2023-12-20T12:45:40;11.50;;;4.18;;
39738;SDS011;25422;48.286;8.484;2023-12-20T12:48:06;7.50;;;3.08;;
39738;SDS011;25422;48.286;8.484;2023-12-20T12:50:32;9.40;;;3.33;;
39738;SDS011;25422;48.286;8.484;2023-12-20T12:52:57;8.65;;;3.38;;
39738;SDS011;25422;48.286;8.484;2023-12-20T12:55:22;6.43;;;2.85;;
39738;SDS011;25422;48.286;8.484;2023-12-20T12:57:48;8.35;;;3.35;;
39738;SDS011;25422;48.286;8.484;2023-12-20T13:00:14;12.20;;;4.47;;
39738;SDS011;25422;48.286;8.484;2023-12-20T13:02:39;7.28;;;3.05;;
39738;SDS011;25422;48.286;8.484;2023-12-20T13:05:07;8.88;;;3.38;;
39738;SDS011;25422;48.286;8.484;2023-12-20T13:07:33;14.23;;;7.50;;
39738;SDS011;25422;48.286;8.484;2023-12-20T13:09:59;5.55;;;2.83;;
39738;SDS011;25422;48.286;8.484;2023-12-20T13:12:25;6.60;;;2.60;;
39738;SDS011;25422;48.286;8.484;2023-12-20T13:14:50;11.07;;;2.67;;
39738;SDS011;25422;48.286;8.484;2023-12-20T13:17:16;6.70;;;2.22;;
39738;SDS011;25422;48.286;8.484;2023-12-20T13:19:42;9.05;;;2.85;;
39738;SDS011;25422;48.286;8.484;2023-12-20T13:22:07;11.35;;;2.58;;
39738;SDS011;25422;48.286;8.484;2023-12-20T13:24:33;11.23;;;2.50;;
39738;SDS011;25422;48.286;8.484;2023-12-20T13:26:58;6.82;;;2.40;;
39738;SDS011;25422;48.286;8.484;2023-12-20T13:29:24;10.02;;;2.78;;
39738;SDS011;25422;48.286;8.484;2023-12-20T13:31:52;11.32;;;3.47;;
39738;SDS011;25422;48.286;8.484;2023-12-20T13:34:18;10.63;;;2.70;;
39738;SDS011;25422;48.286;8.484;2023-12-20T13:36:44;9.82;;;4.43;;
39738;SDS011;25422;48.286;8.484;2023-12-20T13:39:13;9.55;;;5.68;;
39738;SDS011;25422;48.286;8.484;2023-12-20T13:41:39;8.15;;;3.95;;
39738;SDS011;25422;48.286;8.484;2023-12-20T13:44:04;13.82;;;6.80;;
39738;SDS011;25422;48.286;8.484;2023-12-20T13:46:30;9.45;;;2.83;;
39738;SDS011;25422;48.286;8.484;2023-12-20T13:48:56;7.20;;;2.70;;
39738;SDS011;25422;48.286;8.484;2023-12-20T13:51:22;8.85;;;2.70;;
39738;SDS011;25422;48.286;8.484;2023-12-20T13:53:47;14.18;;;2.33;;
39738;SDS011;25422;48.286;8.484;2023-12-20T13:56:13;8.90;;;2.85;;
39738;SDS011;25422;48.286;8.484;2023-12-20T14:01:09;10.27;;;2.22;;
39738;SDS011;25422;48.286;8.484;2023-12-20T14:03:35;7.30;;;2.50;;
39738;SDS011;25422;48.286;8.484;2023-12-20T14:06:01;8.45;;;2.13;;
39738;SDS011;25422;48.286;8.484;2023-12-20T14:08:26;11.82;;;2.78;;
39738;SDS011;25422;48.286;8.484;2023-12-20T14:10:52;6.93;;;2.20;;
39738;SDS011;25422;48.286;8.484;2023-12-20T14:13:18;14.55;;;3.70;;
39738;SDS011;25422;48.286;8.484;2023-12-20T14:15:43;7.70;;;2.60;;
39738;SDS011;25422;48.286;8.484;2023-12-20T14:18:09;8.43;;;2.30;;
39738;SDS011;25422;48.286;8.484;2023-12-20T14:20:35;8.85;;;5.97;;
39738;SDS011;25422;48.286;8.484;2023-12-20T14:23:03;9.50;;;2.40;;
39738;SDS011;25422;48.286;8.484;2023-12-20T14:25:29;9.27;;;2.20;;
39738;SDS011;25422;48.286;8.484;2023-12-20T14:27:55;10.27;;;2.70;;
39738;SDS011;25422;48.286;8.484;2023-12-20T14:30:21;8.75;;;2.95;;
39738;SDS011;25422;48.286;8.484;2023-12-20T14:32:46;9.30;;;2.80;;
39738;SDS011;25422;48.286;8.484;2023-12-20T14:35:13;7.80;;;2.95;;
39738;SDS011;25422;48.286;8.484;2023-12-20T14:37:38;10.88;;;3.88;;
39738;SDS011;25422;48.286;8.484;2023-12-20T14:40:06;12.13;;;5.68;;
39738;SDS011;25422;48.286;8.484;2023-12-20T14:42:35;15.27;;;6.10;;
39738;SDS011;25422;48.286;8.484;2023-12-20T14:45:00;7.00;;;2.78;;
39738;SDS011;25422;48.286;8.484;2023-12-20T14:47:26;9.25;;;2.95;;
39738;SDS011;25422;48.286;8.484;2023-12-20T14:49:51;5.97;;;2.40;;
39738;SDS011;25422;48.286;8.484;2023-12-20T14:52:19;9.50;;;3.00;;